Lawson Army Air Field (Fort Benning) Fort Benning(Columbus) US
ICAO: KLSF
IATA: LSF
Category: Medium
Scheduled Services: No

Elevation: 232 ft
TransAlt. 18000 ft.

Airport Communications:
ATLANTA APP/DEP:125.5
ATIS:134.375
CLNC DEL:121.7
GND:121.05
PMSV METRO:34.32
PTD/BASE OPS:134.1
TWR:119.05

KLSF Zoom In..

If Map Doesn't Load, Click Here

Runways:

(A) RW 15 length 10004 ft width 150 ft
---- / hdg 147

(B) RW 33 length 10004 ft width 150 ft
ILS 110.70 / hdg 327

Location; KLSF
Day. 23 / Time. 21.56 Zulu
* Altimeter: 29.95
* Temperature: 31° c. 87.8°f.
* Wind from: 130° Speed 04 kn.
Dewpoint: 20° c.
Visibility: 10 Statute Miles.
Clouds: Overcast 9000 ft.

KLSF 232156Z AUTO 13004KT 10SM OVC090 31/20 A2995 RMK AO2 SLP145 T03130196 $


Wind From 130°
Speed 04 kn.

 
 
jpsmedia.com for Web Design worldairports.se 2018   terms of use